sensor_id;sensor_type;location;lat;lon;timestamp;temperature;humidity
32394;DHT22;18853;45.426;9.206;2023-05-07T00:01:39;27.30;43.50
32394;DHT22;18853;45.426;9.206;2023-05-07T00:04:05;27.30;43.50
32394;DHT22;18853;45.426;9.206;2023-05-07T00:06:32;27.30;43.30
32394;DHT22;18853;45.426;9.206;2023-05-07T00:08:58;27.30;43.00
32394;DHT22;18853;45.426;9.206;2023-05-07T00:11:25;27.30;42.80
32394;DHT22;18853;45.426;9.206;2023-05-07T00:13:51;27.20;41.50
32394;DHT22;18853;45.426;9.206;2023-05-07T00:16:17;27.20;40.40
32394;DHT22;18853;45.426;9.206;2023-05-07T00:18:42;27.10;39.90
32394;DHT22;18853;45.426;9.206;2023-05-07T00:21:08;27.10;39.10
32394;DHT22;18853;45.426;9.206;2023-05-07T00:23:34;27.10;38.50
32394;DHT22;18853;45.426;9.206;2023-05-07T00:26:00;27.00;37.90
32394;DHT22;18853;45.426;9.206;2023-05-07T00:28:25;27.00;37.80
32394;DHT22;18853;45.426;9.206;2023-05-07T00:30:51;27.00;37.60
32394;DHT22;18853;45.426;9.206;2023-05-07T00:33:17;27.00;37.10
32394;DHT22;18853;45.426;9.206;2023-05-07T00:35:43;26.90;36.70
32394;DHT22;18853;45.426;9.206;2023-05-07T00:38:09;26.90;36.40
32394;DHT22;18853;45.426;9.206;2023-05-07T00:40:34;26.90;36.20
32394;DHT22;18853;45.426;9.206;2023-05-07T00:43:00;26.90;36.10
32394;DHT22;18853;45.426;9.206;2023-05-07T00:45:29;26.90;36.00
32394;DHT22;18853;45.426;9.206;2023-05-07T00:48:00;26.90;35.70
32394;DHT22;18853;45.426;9.206;2023-05-07T00:50:27;26.90;35.40
32394;DHT22;18853;45.426;9.206;2023-05-07T00:52:53;26.80;35.20
32394;DHT22;18853;45.426;9.206;2023-05-07T00:55:21;26.90;35.30
32394;DHT22;18853;45.426;9.206;2023-05-07T00:57:47;26.90;35.00
32394;DHT22;18853;45.426;9.206;2023-05-07T01:00:13;26.90;34.70
32394;DHT22;18853;45.426;9.206;2023-05-07T01:02:39;26.90;34.60
32394;DHT22;18853;45.426;9.206;2023-05-07T01:05:07;26.80;34.40
32394;DHT22;18853;45.426;9.206;2023-05-07T01:07:34;26.90;34.40
32394;DHT22;18853;45.426;9.206;2023-05-07T01:10:00;26.80;34.50
32394;DHT22;18853;45.426;9.206;2023-05-07T01:12:28;26.80;34.60
32394;DHT22;18853;45.426;9.206;2023-05-07T01:14:54;26.90;35.00
32394;DHT22;18853;45.426;9.206;2023-05-07T01:17:20;26.90;34.80
32394;DHT22;18853;45.426;9.206;2023-05-07T01:19:45;26.90;35.00
32394;DHT22;18853;45.426;9.206;2023-05-07T01:22:15;26.90;35.10
32394;DHT22;18853;45.426;9.206;2023-05-07T01:24:41;26.90;35.10
32394;DHT22;18853;45.426;9.206;2023-05-07T01:27:07;26.80;35.10
32394;DHT22;18853;45.426;9.206;2023-05-07T01:29:33;26.90;35.40
32394;DHT22;18853;45.426;9.206;2023-05-07T01:32:00;26.90;35.30
32394;DHT22;18853;45.426;9.206;2023-05-07T01:34:28;26.90;35.50
32394;DHT22;18853;45.426;9.206;2023-05-07T01:36:56;26.90;35.80
32394;DHT22;18853;45.426;9.206;2023-05-07T01:39:27;26.80;36.00
32394;DHT22;18853;45.426;9.206;2023-05-07T01:41:56;26.80;36.20
32394;DHT22;18853;45.426;9.206;2023-05-07T01:44:25;26.80;36.30
32394;DHT22;18853;45.426;9.206;2023-05-07T01:46:51;26.80;36.60
32394;DHT22;18853;45.426;9.206;2023-05-07T01:49:17;26.80;37.00
32394;DHT22;18853;45.426;9.206;2023-05-07T01:51:43;26.70;37.60
32394;DHT22;18853;45.426;9.206;2023-05-07T01:54:09;26.70;38.80
32394;DHT22;18853;45.426;9.206;2023-05-07T01:56:35;26.60;40.10
32394;DHT22;18853;45.426;9.206;2023-05-07T01:59:01;26.60;41.30
32394;DHT22;18853;45.426;9.206;2023-05-07T02:01:27;26.50;42.10
32394;DHT22;18853;45.426;9.206;2023-05-07T02:03:53;26.50;42.60
32394;DHT22;18853;45.426;9.206;2023-05-07T02:06:19;26.50;42.80
32394;DHT22;18853;45.426;9.206;2023-05-07T02:08:46;26.50;42.90
32394;DHT22;18853;45.426;9.206;2023-05-07T02:11:12;26.40;43.00
32394;DHT22;18853;45.426;9.206;2023-05-07T02:13:38;26.40;43.10
32394;DHT22;18853;45.426;9.206;2023-05-07T02:16:04;26.40;43.20
32394;DHT22;18853;45.426;9.206;2023-05-07T02:18:30;26.30;43.10
32394;DHT22;18853;45.426;9.206;2023-05-07T02:20:55;26.20;43.20
32394;DHT22;18853;45.426;9.206;2023-05-07T02:23:21;26.10;43.20
32394;DHT22;18853;45.426;9.206;2023-05-07T02:25:47;26.10;43.00
32394;DHT22;18853;45.426;9.206;2023-05-07T02:28:13;26.10;42.50
32394;DHT22;18853;45.426;9.206;2023-05-07T02:30:39;26.10;42.30
32394;DHT22;18853;45.426;9.206;2023-05-07T02:33:05;26.00;41.40
32394;DHT22;18853;45.426;9.206;2023-05-07T02:35:32;26.00;41.40
32394;DHT22;18853;45.426;9.206;2023-05-07T02:37:58;25.90;41.80
32394;DHT22;18853;45.426;9.206;2023-05-07T02:40:24;25.90;42.00
32394;DHT22;18853;45.426;9.206;2023-05-07T02:42:49;25.90;42.10
32394;DHT22;18853;45.426;9.206;2023-05-07T02:45:15;25.90;42.20
32394;DHT22;18853;45.426;9.206;2023-05-07T02:47:41;25.90;42.40
32394;DHT22;18853;45.426;9.206;2023-05-07T02:50:07;25.70;42.70
32394;DHT22;18853;45.426;9.206;2023-05-07T02:52:33;25.70;42.50
32394;DHT22;18853;45.426;9.206;2023-05-07T02:54:58;25.70;42.50
32394;DHT22;18853;45.426;9.206;2023-05-07T02:57:24;25.70;42.60
32394;DHT22;18853;45.426;9.206;2023-05-07T02:59:50;25.70;42.50
32394;DHT22;18853;45.426;9.206;2023-05-07T03:02:16;25.70;42.40
32394;DHT22;18853;45.426;9.206;2023-05-07T03:04:42;25.70;42.10
32394;DHT22;18853;45.426;9.206;2023-05-07T03:07:07;25.70;41.80
32394;DHT22;18853;45.426;9.206;2023-05-07T03:09:33;25.60;41.70
32394;DHT22;18853;45.426;9.206;2023-05-07T03:11:59;25.50;41.70
32394;DHT22;18853;45.426;9.206;2023-05-07T03:14:24;25.50;41.80
32394;DHT22;18853;45.426;9.206;2023-05-07T03:16:50;25.50;41.80
32394;DHT22;18853;45.426;9.206;2023-05-07T03:19:16;25.40;41.70
32394;DHT22;18853;45.426;9.206;2023-05-07T03:21:42;25.50;41.70
32394;DHT22;18853;45.426;9.206;2023-05-07T03:24:07;25.50;41.60
32394;DHT22;18853;45.426;9.206;2023-05-07T03:26:33;25.50;42.10
32394;DHT22;18853;45.426;9.206;2023-05-07T03:28:59;25.40;42.30
32394;DHT22;18853;45.426;9.206;2023-05-07T03:31:24;25.40;42.70
32394;DHT22;18853;45.426;9.206;2023-05-07T03:36:17;25.30;43.70
32394;DHT22;18853;45.426;9.206;2023-05-07T03:38:43;25.20;43.90
32394;DHT22;18853;45.426;9.206;2023-05-07T03:41:09;25.20;44.10
32394;DHT22;18853;45.426;9.206;2023-05-07T03:43:34;25.20;44.30
32394;DHT22;18853;45.426;9.206;2023-05-07T03:46:00;25.20;44.40
32394;DHT22;18853;45.426;9.206;2023-05-07T03:48:26;25.20;44.50
32394;DHT22;18853;45.426;9.206;2023-05-07T03:50:52;25.20;44.80
32394;DHT22;18853;45.426;9.206;2023-05-07T03:53:17;25.20;45.00
32394;DHT22;18853;45.426;9.206;2023-05-07T03:55:43;25.20;45.10
32394;DHT22;18853;45.426;9.206;2023-05-07T03:58:09;25.20;45.00
32394;DHT22;18853;45.426;9.206;2023-05-07T04:00:34;25.20;45.10
32394;DHT22;18853;45.426;9.206;2023-05-07T04:03:04;25.20;45.30
32394;DHT22;18853;45.426;9.206;2023-05-07T04:05:30;25.10;45.50
32394;DHT22;18853;45.426;9.206;2023-05-07T04:07:58;25.00;45.70
32394;DHT22;18853;45.426;9.206;2023-05-07T04:10:24;25.00;45.80
32394;DHT22;18853;45.426;9.206;2023-05-07T04:12:50;25.00;45.80
32394;DHT22;18853;45.426;9.206;2023-05-07T04:15:15;25.00;45.70
32394;DHT22;18853;45.426;9.206;2023-05-07T04:17:41;25.00;45.60
32394;DHT22;18853;45.426;9.206;2023-05-07T04:20:10;25.00;45.80
32394;DHT22;18853;45.426;9.206;2023-05-07T04:22:36;25.00;45.70
32394;DHT22;18853;45.426;9.206;2023-05-07T04:25:02;24.90;45.50
32394;DHT22;18853;45.426;9.206;2023-05-07T04:27:29;24.90;45.50
32394;DHT22;18853;45.426;9.206;2023-05-07T04:29:55;24.90;45.70
32394;DHT22;18853;45.426;9.206;2023-05-07T04:32:23;24.80;45.90
32394;DHT22;18853;45.426;9.206;2023-05-07T04:34:50;24.80;46.00
32394;DHT22;18853;45.426;9.206;2023-05-07T04:37:16;24.90;46.10
32394;DHT22;18853;45.426;9.206;2023-05-07T04:39:42;24.80;45.90
32394;DHT22;18853;45.426;9.206;2023-05-07T04:42:08;24.60;46.50
32394;DHT22;18853;45.426;9.206;2023-05-07T04:44:34;24.60;46.50
32394;DHT22;18853;45.426;9.206;2023-05-07T04:47:02;24.70;46.50
32394;DHT22;18853;45.426;9.206;2023-05-07T04:49:28;24.70;46.40
32394;DHT22;18853;45.426;9.206;2023-05-07T04:51:53;24.70;46.30
32394;DHT22;18853;45.426;9.206;2023-05-07T04:54:19;24.70;46.50
32394;DHT22;18853;45.426;9.206;2023-05-07T04:56:45;24.70;46.50
32394;DHT22;18853;45.426;9.206;2023-05-07T04:59:11;24.70;46.60
32394;DHT22;18853;45.426;9.206;2023-05-07T05:01:36;24.70;46.70
32394;DHT22;18853;45.426;9.206;2023-05-07T05:04:02;24.80;46.60
32394;DHT22;18853;45.426;9.206;2023-05-07T05:06:28;24.70;46.60
32394;DHT22;18853;45.426;9.206;2023-05-07T05:08:54;24.70;46.60
32394;DHT22;18853;45.426;9.206;2023-05-07T05:11:19;24.70;46.70
32394;DHT22;18853;45.426;9.206;2023-05-07T05:13:46;24.70;46.60
32394;DHT22;18853;45.426;9.206;2023-05-07T05:16:14;24.70;46.60
32394;DHT22;18853;45.426;9.206;2023-05-07T05:18:40;24.70;46.40
32394;DHT22;18853;45.426;9.206;2023-05-07T05:21:06;24.70;46.40
32394;DHT22;18853;45.426;9.206;2023-05-07T05:23:32;24.80;46.60
32394;DHT22;18853;45.426;9.206;2023-05-07T05:25:58;24.80;46.60
32394;DHT22;18853;45.426;9.206;2023-05-07T05:28:24;24.80;47.10
32394;DHT22;18853;45.426;9.206;2023-05-07T05:30:50;24.80;46.30
32394;DHT22;18853;45.426;9.206;2023-05-07T05:33:16;24.90;46.00
32394;DHT22;18853;45.426;9.206;2023-05-07T05:35:42;24.80;46.00
32394;DHT22;18853;45.426;9.206;2023-05-07T05:38:07;24.80;46.20
32394;DHT22;18853;45.426;9.206;2023-05-07T05:40:33;24.80;46.00
32394;DHT22;18853;45.426;9.206;2023-05-07T05:42:59;24.90;46.00
32394;DHT22;18853;45.426;9.206;2023-05-07T05:45:25;24.80;46.10
32394;DHT22;18853;45.426;9.206;2023-05-07T05:47:51;24.80;46.20
32394;DHT22;18853;45.426;9.206;2023-05-07T05:50:17;24.80;46.20
32394;DHT22;18853;45.426;9.206;2023-05-07T05:52:42;24.80;45.90
32394;DHT22;18853;45.426;9.206;2023-05-07T05:55:08;24.90;46.00
32394;DHT22;18853;45.426;9.206;2023-05-07T05:57:34;24.90;46.30
32394;DHT22;18853;45.426;9.206;2023-05-07T06:00:01;24.90;46.30
32394;DHT22;18853;45.426;9.206;2023-05-07T06:02:28;24.90;46.00
32394;DHT22;18853;45.426;9.206;2023-05-07T06:04:53;24.90;46.20
32394;DHT22;18853;45.426;9.206;2023-05-07T06:07:19;24.80;46.30
32394;DHT22;18853;45.426;9.206;2023-05-07T06:09:45;24.80;46.60
32394;DHT22;18853;45.426;9.206;2023-05-07T06:12:11;24.80;46.80
32394;DHT22;18853;45.426;9.206;2023-05-07T06:14:37;24.80;46.90
32394;DHT22;18853;45.426;9.206;2023-05-07T06:17:03;24.80;46.90
32394;DHT22;18853;45.426;9.206;2023-05-07T06:19:28;24.70;46.90
32394;DHT22;18853;45.426;9.206;2023-05-07T06:21:54;24.70;46.70
32394;DHT22;18853;45.426;9.206;2023-05-07T06:24:22;24.70;46.70
32394;DHT22;18853;45.426;9.206;2023-05-07T06:26:48;24.70;46.70
32394;DHT22;18853;45.426;9.206;2023-05-07T06:29:13;24.80;46.80
32394;DHT22;18853;45.426;9.206;2023-05-07T06:31:39;24.80;46.70
32394;DHT22;18853;45.426;9.206;2023-05-07T06:34:05;24.80;46.60
32394;DHT22;18853;45.426;9.206;2023-05-07T06:36:31;24.70;46.60
32394;DHT22;18853;45.426;9.206;2023-05-07T06:38:57;24.70;46.70
32394;DHT22;18853;45.426;9.206;2023-05-07T06:41:22;24.80;46.80
32394;DHT22;18853;45.426;9.206;2023-05-07T06:43:48;25.00;46.50
32394;DHT22;18853;45.426;9.206;2023-05-07T06:46:14;25.10;46.30
32394;DHT22;18853;45.426;9.206;2023-05-07T06:48:40;25.20;46.30
32394;DHT22;18853;45.426;9.206;2023-05-07T06:51:06;25.30;46.20
32394;DHT22;18853;45.426;9.206;2023-05-07T06:53:31;25.40;46.10
32394;DHT22;18853;45.426;9.206;2023-05-07T06:55:57;25.40;45.90
32394;DHT22;18853;45.426;9.206;2023-05-07T06:58:23;25.50;45.70
32394;DHT22;18853;45.426;9.206;2023-05-07T07:00:48;25.50;45.60
32394;DHT22;18853;45.426;9.206;2023-05-07T07:03:14;25.60;45.50
32394;DHT22;18853;45.426;9.206;2023-05-07T07:05:41;25.60;45.40
32394;DHT22;18853;45.426;9.206;2023-05-07T07:08:07;25.70;45.30
32394;DHT22;18853;45.426;9.206;2023-05-07T07:10:33;25.70;45.10
32394;DHT22;18853;45.426;9.206;2023-05-07T07:12:58;25.80;45.30
32394;DHT22;18853;45.426;9.206;2023-05-07T07:15:25;25.70;45.70
32394;DHT22;18853;45.426;9.206;2023-05-07T07:17:51;25.80;45.90
32394;DHT22;18853;45.426;9.206;2023-05-07T07:20:16;25.80;46.20
32394;DHT22;18853;45.426;9.206;2023-05-07T07:22:42;25.80;46.10
32394;DHT22;18853;45.426;9.206;2023-05-07T07:25:09;25.90;46.30
32394;DHT22;18853;45.426;9.206;2023-05-07T07:27:35;25.90;45.70
32394;DHT22;18853;45.426;9.206;2023-05-07T07:30:01;25.80;46.20
32394;DHT22;18853;45.426;9.206;2023-05-07T07:32:27;25.80;46.50
32394;DHT22;18853;45.426;9.206;2023-05-07T07:34:52;25.90;46.80
32394;DHT22;18853;45.426;9.206;2023-05-07T07:37:18;25.90;47.20
32394;DHT22;18853;45.426;9.206;2023-05-07T07:39:44;25.90;48.10
32394;DHT22;18853;45.426;9.206;2023-05-07T07:42:09;26.00;47.80
32394;DHT22;18853;45.426;9.206;2023-05-07T07:44:35;26.00;48.60
32394;DHT22;18853;45.426;9.206;2023-05-07T07:47:01;26.00;48.00
32394;DHT22;18853;45.426;9.206;2023-05-07T07:49:27;26.10;48.30
32394;DHT22;18853;45.426;9.206;2023-05-07T07:51:52;26.10;48.60
32394;DHT22;18853;45.426;9.206;2023-05-07T07:54:18;26.20;49.30
32394;DHT22;18853;45.426;9.206;2023-05-07T07:56:44;26.20;47.70
32394;DHT22;18853;45.426;9.206;2023-05-07T07:59:10;26.20;49.50
32394;DHT22;18853;45.426;9.206;2023-05-07T08:01:36;26.20;49.90
32394;DHT22;18853;45.426;9.206;2023-05-07T08:04:01;26.30;47.50
32394;DHT22;18853;45.426;9.206;2023-05-07T08:06:28;26.20;46.40
32394;DHT22;18853;45.426;9.206;2023-05-07T08:08:54;26.00;45.80
32394;DHT22;18853;45.426;9.206;2023-05-07T08:11:20;26.00;45.60
32394;DHT22;18853;45.426;9.206;2023-05-07T08:13:47;25.90;45.60
32394;DHT22;18853;45.426;9.206;2023-05-07T08:16:13;25.80;45.70
32394;DHT22;18853;45.426;9.206;2023-05-07T08:18:39;25.80;45.90
32394;DHT22;18853;45.426;9.206;2023-05-07T08:21:05;25.70;46.10
32394;DHT22;18853;45.426;9.206;2023-05-07T08:23:30;25.70;46.10
32394;DHT22;18853;45.426;9.206;2023-05-07T08:25:57;25.80;46.20
32394;DHT22;18853;45.426;9.206;2023-05-07T08:28:22;25.80;46.30
32394;DHT22;18853;45.426;9.206;2023-05-07T08:30:50;25.80;46.20
32394;DHT22;18853;45.426;9.206;2023-05-07T08:33:16;25.80;45.70
32394;DHT22;18853;45.426;9.206;2023-05-07T08:35:41;25.70;45.30
32394;DHT22;18853;45.426;9.206;2023-05-07T08:38:07;25.80;45.30
32394;DHT22;18853;45.426;9.206;2023-05-07T08:40:37;25.80;45.20
32394;DHT22;18853;45.426;9.206;2023-05-07T08:43:05;25.80;45.30
32394;DHT22;18853;45.426;9.206;2023-05-07T08:45:33;25.80;45.30
32394;DHT22;18853;45.426;9.206;2023-05-07T08:48:02;25.80;45.20
32394;DHT22;18853;45.426;9.206;2023-05-07T08:50:29;25.80;45.30
32394;DHT22;18853;45.426;9.206;2023-05-07T08:52:55;25.90;46.50
32394;DHT22;18853;45.426;9.206;2023-05-07T08:55:22;26.00;45.40
32394;DHT22;18853;45.426;9.206;2023-05-07T08:57:48;26.00;45.00
32394;DHT22;18853;45.426;9.206;2023-05-07T09:00:14;26.00;44.70
32394;DHT22;18853;45.426;9.206;2023-05-07T09:02:40;26.00;44.40
32394;DHT22;18853;45.426;9.206;2023-05-07T09:05:06;26.00;44.20
32394;DHT22;18853;45.426;9.206;2023-05-07T09:07:32;26.00;44.10
32394;DHT22;18853;45.426;9.206;2023-05-07T09:09:58;26.00;44.10
32394;DHT22;18853;45.426;9.206;2023-05-07T09:12:24;26.00;44.10
32394;DHT22;18853;45.426;9.206;2023-05-07T09:14:50;26.00;44.20
32394;DHT22;18853;45.426;9.206;2023-05-07T09:17:16;26.00;44.30
32394;DHT22;18853;45.426;9.206;2023-05-07T09:19:44;26.00;44.30
32394;DHT22;18853;45.426;9.206;2023-05-07T09:22:14;26.00;44.40
32394;DHT22;18853;45.426;9.206;2023-05-07T09:24:39;26.00;44.40
32394;DHT22;18853;45.426;9.206;2023-05-07T09:27:06;26.00;44.40
32394;DHT22;18853;45.426;9.206;2023-05-07T09:29:34;26.00;44.70
32394;DHT22;18853;45.426;9.206;2023-05-07T09:32:07;26.10;45.00
32394;DHT22;18853;45.426;9.206;2023-05-07T09:34:34;26.10;45.20
32394;DHT22;18853;45.426;9.206;2023-05-07T09:37:04;26.10;45.90
32394;DHT22;18853;45.426;9.206;2023-05-07T09:39:47;26.20;46.10
32394;DHT22;18853;45.426;9.206;2023-05-07T09:42:13;26.20;46.00
32394;DHT22;18853;45.426;9.206;2023-05-07T09:44:43;26.20;46.10
32394;DHT22;18853;45.426;9.206;2023-05-07T09:47:10;26.30;46.00
32394;DHT22;18853;45.426;9.206;2023-05-07T09:49:39;26.20;45.20
32394;DHT22;18853;45.426;9.206;2023-05-07T09:52:07;26.30;45.00
32394;DHT22;18853;45.426;9.206;2023-05-07T09:54:36;26.30;45.10
32394;DHT22;18853;45.426;9.206;2023-05-07T09:57:04;26.30;45.00
32394;DHT22;18853;45.426;9.206;2023-05-07T09:59:32;26.20;45.30
32394;DHT22;18853;45.426;9.206;2023-05-07T10:01:59;26.20;45.60
32394;DHT22;18853;45.426;9.206;2023-05-07T10:04:28;26.20;45.60
32394;DHT22;18853;45.426;9.206;2023-05-07T10:06:54;26.30;46.00
32394;DHT22;18853;45.426;9.206;2023-05-07T10:09:21;26.30;45.90
32394;DHT22;18853;45.426;9.206;2023-05-07T10:11:49;26.30;45.70
32394;DHT22;18853;45.426;9.206;2023-05-07T10:14:15;26.30;45.80
32394;DHT22;18853;45.426;9.206;2023-05-07T10:16:41;26.30;45.90
32394;DHT22;18853;45.426;9.206;2023-05-07T10:19:10;26.30;45.70
32394;DHT22;18853;45.426;9.206;2023-05-07T10:21:54;26.30;45.90
32394;DHT22;18853;45.426;9.206;2023-05-07T10:24:26;26.30;45.70
32394;DHT22;18853;45.426;9.206;2023-05-07T10:26:53;26.40;45.60
32394;DHT22;18853;45.426;9.206;2023-05-07T10:34:50;26.40;45.40
32394;DHT22;18853;45.426;9.206;2023-05-07T10:37:18;26.40;45.60
32394;DHT22;18853;45.426;9.206;2023-05-07T10:39:45;26.40;45.40
32394;DHT22;18853;45.426;9.206;2023-05-07T10:42:12;26.40;45.30
32394;DHT22;18853;45.426;9.206;2023-05-07T10:44:38;26.40;45.10
32394;DHT22;18853;45.426;9.206;2023-05-07T10:57:40;26.60;44.50
32394;DHT22;18853;45.426;9.206;2023-05-07T11:05:27;26.90;44.20
32394;DHT22;18853;45.426;9.206;2023-05-07T11:08:00;26.90;44.10
32394;DHT22;18853;45.426;9.206;2023-05-07T11:10:54;26.90;44.00
32394;DHT22;18853;45.426;9.206;2023-05-07T11:13:44;27.00;43.40
32394;DHT22;18853;45.426;9.206;2023-05-07T11:16:20;27.00;43.80
32394;DHT22;18853;45.426;9.206;2023-05-07T11:18:51;27.00;43.80
32394;DHT22;18853;45.426;9.206;2023-05-07T11:21:36;27.00;43.70
32394;DHT22;18853;45.426;9.206;2023-05-07T11:24:03;27.00;43.40
32394;DHT22;18853;45.426;9.206;2023-05-07T11:26:31;27.00;43.90
32394;DHT22;18853;45.426;9.206;2023-05-07T11:28:57;27.00;43.90
32394;DHT22;18853;45.426;9.206;2023-05-07T11:31:26;27.00;43.90
32394;DHT22;18853;45.426;9.206;2023-05-07T11:33:54;27.10;44.00
32394;DHT22;18853;45.426;9.206;2023-05-07T11:36:22;27.10;43.90
32394;DHT22;18853;45.426;9.206;2023-05-07T11:38:48;27.20;43.80
32394;DHT22;18853;45.426;9.206;2023-05-07T11:41:15;27.20;43.90
32394;DHT22;18853;45.426;9.206;2023-05-07T11:43:58;27.20;43.80
32394;DHT22;18853;45.426;9.206;2023-05-07T11:46:25;27.30;43.40
32394;DHT22;18853;45.426;9.206;2023-05-07T11:48:50;27.30;43.80
32394;DHT22;18853;45.426;9.206;2023-05-07T11:51:21;27.30;43.70
32394;DHT22;18853;45.426;9.206;2023-05-07T11:53:47;27.40;43.60
32394;DHT22;18853;45.426;9.206;2023-05-07T11:56:15;27.50;43.90
32394;DHT22;18853;45.426;9.206;2023-05-07T11:58:42;27.60;43.70
32394;DHT22;18853;45.426;9.206;2023-05-07T12:01:10;27.70;43.60
32394;DHT22;18853;45.426;9.206;2023-05-07T12:03:36;27.70;43.40
32394;DHT22;18853;45.426;9.206;2023-05-07T12:06:05;27.80;43.50
32394;DHT22;18853;45.426;9.206;2023-05-07T12:08:31;27.90;43.40
32394;DHT22;18853;45.426;9.206;2023-05-07T12:10:58;27.90;42.90
32394;DHT22;18853;45.426;9.206;2023-05-07T12:13:25;28.00;43.10
32394;DHT22;18853;45.426;9.206;2023-05-07T12:15:52;28.20;43.20
32394;DHT22;18853;45.426;9.206;2023-05-07T12:18:19;28.20;43.70
32394;DHT22;18853;45.426;9.206;2023-05-07T12:20:45;28.30;43.40
32394;DHT22;18853;45.426;9.206;2023-05-07T12:23:12;28.40;41.80
32394;DHT22;18853;45.426;9.206;2023-05-07T12:25:39;28.30;40.80
32394;DHT22;18853;45.426;9.206;2023-05-07T12:28:07;28.40;40.30
32394;DHT22;18853;45.426;9.206;2023-05-07T12:30:39;28.40;40.20
32394;DHT22;18853;45.426;9.206;2023-05-07T12:33:05;28.50;39.70
32394;DHT22;18853;45.426;9.206;2023-05-07T12:35:36;28.50;40.00
32394;DHT22;18853;45.426;9.206;2023-05-07T12:38:02;28.50;39.60
32394;DHT22;18853;45.426;9.206;2023-05-07T12:40:56;28.50;38.40
32394;DHT22;18853;45.426;9.206;2023-05-07T12:43:25;28.60;37.20
32394;DHT22;18853;45.426;9.206;2023-05-07T12:45:53;28.50;36.40
32394;DHT22;18853;45.426;9.206;2023-05-07T12:48:20;28.50;36.10
32394;DHT22;18853;45.426;9.206;2023-05-07T12:50:52;28.50;34.40
32394;DHT22;18853;45.426;9.206;2023-05-07T12:53:21;28.60;34.80
32394;DHT22;18853;45.426;9.206;2023-05-07T12:55:51;28.70;34.50
32394;DHT22;18853;45.426;9.206;2023-05-07T12:58:30;28.80;34.30
32394;DHT22;18853;45.426;9.206;2023-05-07T13:01:03;28.90;34.90
32394;DHT22;18853;45.426;9.206;2023-05-07T13:03:37;28.90;35.40
32394;DHT22;18853;45.426;9.206;2023-05-07T13:06:08;28.90;35.80
32394;DHT22;18853;45.426;9.206;2023-05-07T13:08:39;28.90;35.90
32394;DHT22;18853;45.426;9.206;2023-05-07T13:11:08;29.00;35.60
32394;DHT22;18853;45.426;9.206;2023-05-07T13:13:35;29.00;35.70
32394;DHT22;18853;45.426;9.206;2023-05-07T13:16:04;29.00;35.80
32394;DHT22;18853;45.426;9.206;2023-05-07T13:18:31;29.10;35.80
32394;DHT22;18853;45.426;9.206;2023-05-07T13:20:57;29.10;35.90
32394;DHT22;18853;45.426;9.206;2023-05-07T13:23:23;29.10;36.10
32394;DHT22;18853;45.426;9.206;2023-05-07T13:25:49;29.00;35.50
32394;DHT22;18853;45.426;9.206;2023-05-07T13:28:16;29.00;35.70
32394;DHT22;18853;45.426;9.206;2023-05-07T13:30:42;29.10;35.60
32394;DHT22;18853;45.426;9.206;2023-05-07T13:33:08;29.20;36.10
32394;DHT22;18853;45.426;9.206;2023-05-07T13:35:34;29.30;35.70
32394;DHT22;18853;45.426;9.206;2023-05-07T13:38:00;29.40;35.50
32394;DHT22;18853;45.426;9.206;2023-05-07T13:40:25;29.50;35.30
32394;DHT22;18853;45.426;9.206;2023-05-07T13:42:51;29.50;35.20
32394;DHT22;18853;45.426;9.206;2023-05-07T13:45:20;29.60;35.20
32394;DHT22;18853;45.426;9.206;2023-05-07T13:47:46;29.70;35.10
32394;DHT22;18853;45.426;9.206;2023-05-07T13:50:13;29.80;35.20
32394;DHT22;18853;45.426;9.206;2023-05-07T13:52:42;29.80;34.30
32394;DHT22;18853;45.426;9.206;2023-05-07T13:55:09;29.80;34.20
32394;DHT22;18853;45.426;9.206;2023-05-07T13:57:36;29.80;34.40
32394;DHT22;18853;45.426;9.206;2023-05-07T14:00:04;29.80;34.50
32394;DHT22;18853;45.426;9.206;2023-05-07T14:02:31;30.00;34.60
32394;DHT22;18853;45.426;9.206;2023-05-07T14:04:56;30.00;34.70
32394;DHT22;18853;45.426;9.206;2023-05-07T14:07:22;30.10;34.70
32394;DHT22;18853;45.426;9.206;2023-05-07T14:09:48;30.20;35.20
32394;DHT22;18853;45.426;9.206;2023-05-07T14:12:13;30.30;34.20
32394;DHT22;18853;45.426;9.206;2023-05-07T14:14:39;30.40;33.60
32394;DHT22;18853;45.426;9.206;2023-05-07T14:17:05;30.50;33.80
32394;DHT22;18853;45.426;9.206;2023-05-07T14:19:30;30.50;33.90
32394;DHT22;18853;45.426;9.206;2023-05-07T14:21:56;30.50;32.70
32394;DHT22;18853;45.426;9.206;2023-05-07T14:24:22;30.40;33.00
32394;DHT22;18853;45.426;9.206;2023-05-07T14:26:47;30.40;33.10
32394;DHT22;18853;45.426;9.206;2023-05-07T14:29:13;30.40;33.30
32394;DHT22;18853;45.426;9.206;2023-05-07T14:31:41;30.50;33.40
32394;DHT22;18853;45.426;9.206;2023-05-07T14:34:06;30.60;33.80
32394;DHT22;18853;45.426;9.206;2023-05-07T14:36:32;30.60;33.30
32394;DHT22;18853;45.426;9.206;2023-05-07T14:38:58;30.60;32.70
32394;DHT22;18853;45.426;9.206;2023-05-07T14:41:24;30.70;32.70
32394;DHT22;18853;45.426;9.206;2023-05-07T14:43:50;30.70;32.70
32394;DHT22;18853;45.426;9.206;2023-05-07T14:46:17;30.60;32.70
32394;DHT22;18853;45.426;9.206;2023-05-07T14:48:47;30.50;32.50
32394;DHT22;18853;45.426;9.206;2023-05-07T14:51:13;30.40;32.50
32394;DHT22;18853;45.426;9.206;2023-05-07T14:53:41;30.40;32.70
32394;DHT22;18853;45.426;9.206;2023-05-07T14:56:07;30.40;32.70
32394;DHT22;18853;45.426;9.206;2023-05-07T14:58:34;30.40;33.50
32394;DHT22;18853;45.426;9.206;2023-05-07T15:01:00;30.40;33.10
32394;DHT22;18853;45.426;9.206;2023-05-07T15:03:26;30.50;33.10
32394;DHT22;18853;45.426;9.206;2023-05-07T15:05:52;30.50;33.30
32394;DHT22;18853;45.426;9.206;2023-05-07T15:08:18;30.50;33.00
32394;DHT22;18853;45.426;9.206;2023-05-07T15:10:43;30.50;33.30
32394;DHT22;18853;45.426;9.206;2023-05-07T15:13:10;30.50;33.30
32394;DHT22;18853;45.426;9.206;2023-05-07T15:15:36;30.60;33.50
32394;DHT22;18853;45.426;9.206;2023-05-07T15:18:03;30.80;33.50
32394;DHT22;18853;45.426;9.206;2023-05-07T15:20:29;30.80;33.50
32394;DHT22;18853;45.426;9.206;2023-05-07T15:22:55;30.80;33.40
32394;DHT22;18853;45.426;9.206;2023-05-07T15:25:21;30.80;33.40
32394;DHT22;18853;45.426;9.206;2023-05-07T15:27:47;30.90;33.10
32394;DHT22;18853;45.426;9.206;2023-05-07T15:30:13;30.90;33.00
32394;DHT22;18853;45.426;9.206;2023-05-07T15:32:40;30.90;33.10
32394;DHT22;18853;45.426;9.206;2023-05-07T15:35:06;31.00;33.20
32394;DHT22;18853;45.426;9.206;2023-05-07T15:37:32;31.00;33.00
32394;DHT22;18853;45.426;9.206;2023-05-07T15:39:58;31.00;32.60
32394;DHT22;18853;45.426;9.206;2023-05-07T15:42:24;30.90;32.50
32394;DHT22;18853;45.426;9.206;2023-05-07T15:44:50;30.90;32.80
32394;DHT22;18853;45.426;9.206;2023-05-07T15:47:15;30.90;32.70
32394;DHT22;18853;45.426;9.206;2023-05-07T15:49:41;30.90;32.70
32394;DHT22;18853;45.426;9.206;2023-05-07T15:52:07;30.90;33.10